Eureka, Indiana
Current Conditions -  °F | °C
As of 6:56 PM on Monday 26 Jan 2015 (Local Time) from KOWB Reporting Station
Broken Clouds Broken Clouds  
Wind Chill: 29°   Ceiling: 3400
Heat Index: 29°   Visibility: 10mi
Dew Point: 28°   Wind: 0mph
Humidity: 96%   Direction: NA
Pressure: 29.99"   Gusts: NA
Location:  37.8791°N, 87.0955°W
Report Text: KOWB 270056Z 00000KT 10SM BKN034 M02/M02 A2999 RMK AO2 T10161022 BKN V OVC SNE35 P0000 SLP160
Loading
Personal Weather Stations






























Interactive Weather Map New forecast layout! Learn more

10-Day Weather Forecast

Advertisements
Track Severe Weather on mobile